Time;durP1;ratioP1;P1;durP2;ratioP2;P2;SDS_P1;SDS_P2;PMS_P1;PMS_P2;Temp;Humidity;BMP_temperature;BMP_pressure;BME280_temperature;BME280_humidity;BME280_pressure;Samples;Min_cycle;Max_cycle;Signal;HPM_P1;HPM_P2
2023/11/28 05:34:53;;;;;;;1999.90;999.90;;;;;;;;;;4963947;23;20053;-68
2023/11/28 05:37:23;;;;;;;1999.90;999.90;;;;;;;;;;4992514;28;20042;-65
2023/11/28 05:39:49;;;;;;;1999.90;999.90;;;;;;;;;;4992261;28;20084;-67
2023/11/28 05:42:15;;;;;;;1999.90;999.90;;;;;;;;;;4991612;28;20026;-68
2023/11/28 05:44:43;;;;;;;1999.90;999.90;;;;;;;;;;4992284;28;20056;-67
2023/11/28 05:47:09;;;;;;;1999.90;999.90;;;;;;;;;;4992157;28;20026;-67
2023/11/28 05:49:35;;;;;;;1999.90;999.90;;;;;;;;;;4992029;28;20031;-68
2023/11/28 05:52:01;;;;;;;1999.90;999.90;;;;;;;;;;4991850;28;20559;-68
2023/11/28 05:54:28;;;;;;;1999.90;999.90;;;;;;;;;;4992141;28;20432;-69
2023/11/28 05:56:54;;;;;;;1999.90;999.90;;;;;;;;;;4991897;28;20026;-67
2023/11/28 05:59:21;;;;;;;1999.90;999.90;;;;;;;;;;4973160;28;20513;-69
2023/11/28 06:02:00;;;;;;;1999.90;999.90;;;;;;;;;;4991467;28;20030;-68
2023/11/28 06:04:26;;;;;;;1999.90;999.90;;;;;;;;;;4999045;28;20286;-67
2023/11/28 06:06:52;;;;;;;1999.90;999.90;;;;;;;;;;5001445;28;20095;-67
2023/11/28 06:09:18;;;;;;;1999.90;999.90;;;;;;;;;;4983778;28;20030;-67
2023/11/28 06:11:45;;;;;;;1999.90;999.90;;;;;;;;;;5000264;28;20145;-67
2023/11/28 06:14:11;;;;;;;1999.90;999.90;;;;;;;;;;5000733;28;20038;-68
2023/11/28 06:16:37;;;;;;;1999.90;999.90;;;;;;;;;;5000711;28;20037;-70
2023/11/28 06:19:03;;;;;;;1999.90;999.90;;;;;;;;;;4983806;28;20652;-68
2023/11/28 06:21:29;;;;;;;1999.90;999.90;;;;;;;;;;5000451;28;20113;-68
2023/11/28 06:23:55;;;;;;;1999.90;999.90;;;;;;;;;;4998929;28;20026;-68
2023/11/28 06:26:21;;;;;;;1999.90;999.90;;;;;;;;;;4997088;28;20077;-66
2023/11/28 06:28:47;;;;;;;1999.90;999.90;;;;;;;;;;4991347;28;20035;-66
2023/11/28 06:31:16;;;;;;;1999.90;999.90;;;;;;;;;;4991201;28;20156;-68
2023/11/28 06:33:42;;;;;;;1999.90;999.90;;;;;;;;;;4982446;28;20043;-66
2023/11/28 06:36:08;;;;;;;1999.90;999.90;;;;;;;;;;4971632;28;20070;-63
2023/11/28 06:38:34;;;;;;;1999.90;999.90;;;;;;;;;;4980081;28;20493;-65
2023/11/28 06:41:01;;;;;;;1999.90;999.90;;;;;;;;;;4980355;28;20027;-68
2023/11/28 06:43:27;;;;;;;1999.90;999.90;;;;;;;;;;4981093;28;20075;-68
2023/11/28 06:45:58;;;;;;;1999.90;999.90;;;;;;;;;;4964700;28;20460;-67
2023/11/28 06:48:25;;;;;;;1999.90;999.90;;;;;;;;;;4980509;28;20050;-70
2023/11/28 06:50:51;;;;;;;1999.90;999.90;;;;;;;;;;4980009;28;20466;-67
2023/11/28 06:53:17;;;;;;;1999.90;999.90;;;;;;;;;;4981810;28;20026;-65
2023/11/28 06:55:43;;;;;;;1999.90;999.90;;;;;;;;;;4980568;28;20098;-66
2023/11/28 06:58:09;;;;;;;1999.90;999.90;;;;;;;;;;4980217;28;20119;-66
2023/11/28 07:00:36;;;;;;;1999.90;999.90;;;;;;;;;;4982033;28;20018;-66
2023/11/28 07:03:02;;;;;;;1999.90;999.90;;;;;;;;;;4979811;28;20031;-67
2023/11/28 07:05:29;;;;;;;1999.90;999.90;;;;;;;;;;4980416;28;20019;-67
2023/11/28 07:07:55;;;;;;;1999.90;999.90;;;;;;;;;;4964318;28;20536;-67
2023/11/28 07:10:21;;;;;;;1999.90;999.90;;;;;;;;;;4981308;28;20053;-68
2023/11/28 07:12:47;;;;;;;1999.90;999.90;;;;;;;;;;4983356;28;20026;-68
2023/11/28 07:15:14;;;;;;;1999.90;999.90;;;;;;;;;;4985281;28;20141;-70
2023/11/28 07:17:40;;;;;;;1999.90;999.90;;;;;;;;;;4983879;28;20015;-70
2023/11/28 07:20:07;;;;;;;1999.90;999.90;;;;;;;;;;4984734;28;20080;-67
2023/11/28 07:22:33;;;;;;;1999.90;999.90;;;;;;;;;;4986243;28;20049;-68
2023/11/28 07:24:59;;;;;;;1999.90;999.90;;;;;;;;;;4983502;28;20026;-71
2023/11/28 07:27:25;;;;;;;1999.90;999.90;;;;;;;;;;4984933;28;20019;-71
2023/11/28 07:29:51;;;;;;;1999.90;999.90;;;;;;;;;;4984850;28;20475;-70
2023/11/28 07:32:19;;;;;;;1999.90;999.90;;;;;;;;;;4988651;28;20370;-68
2023/11/28 07:34:45;;;;;;;1999.90;999.90;;;;;;;;;;4994293;28;20057;-71
2023/11/28 07:37:11;;;;;;;1999.90;999.90;;;;;;;;;;4994491;28;20057;-70
2023/11/28 07:39:38;;;;;;;1999.90;999.90;;;;;;;;;;4994570;28;20527;-69
2023/11/28 07:42:04;;;;;;;1999.90;999.90;;;;;;;;;;4994493;28;20026;-72
2023/11/28 07:44:30;;;;;;;1999.90;999.90;;;;;;;;;;4994224;28;20092;-69
2023/11/28 07:46:56;;;;;;;1999.90;999.90;;;;;;;;;;4994166;28;20394;-68
2023/11/28 07:49:22;;;;;;;1999.90;999.90;;;;;;;;;;4993959;28;20026;-70
2023/11/28 07:51:49;;;;;;;1999.90;999.90;;;;;;;;;;4994214;28;20058;-71
2023/11/28 07:54:16;;;;;;;1999.90;999.90;;;;;;;;;;4994265;28;20126;-71
2023/11/28 07:56:42;;;;;;;1999.90;999.90;;;;;;;;;;4994329;28;20046;-71
2023/11/28 07:59:08;;;;;;;1999.90;999.90;;;;;;;;;;4985387;28;20027;-71
2023/11/28 08:01:34;;;;;;;1999.90;999.90;;;;;;;;;;4988020;28;20474;-72
2023/11/28 08:04:00;;;;;;;1999.90;999.90;;;;;;;;;;4985395;28;20053;-71
2023/11/28 08:06:26;;;;;;;1999.90;999.90;;;;;;;;;;4993751;28;20050;-71
2023/11/28 08:08:52;;;;;;;1999.90;999.90;;;;;;;;;;4993981;28;20033;-72
2023/11/28 08:11:18;;;;;;;1999.90;999.90;;;;;;;;;;4964193;28;20455;-68
2023/11/28 08:13:45;;;;;;;1999.90;999.90;;;;;;;;;;4974164;28;20023;-68
2023/11/28 08:16:11;;;;;;;1999.90;999.90;;;;;;;;;;4986936;28;20030;-68
2023/11/28 08:18:37;;;;;;;1999.90;999.90;;;;;;;;;;4993530;28;20033;-68
2023/11/28 08:21:07;;;;;;;1999.90;999.90;;;;;;;;;;4976056;28;20502;-70
2023/11/28 08:23:33;;;;;;;1999.90;999.90;;;;;;;;;;4984448;28;20493;-70
2023/11/28 08:25:59;;;;;;;1999.90;999.90;;;;;;;;;;4973947;28;20471;-71
2023/11/28 08:28:25;;;;;;;1999.90;999.90;;;;;;;;;;4986012;28;20034;-71
2023/11/28 08:30:51;;;;;;;1999.90;999.90;;;;;;;;;;4981343;28;20573;-70
2023/11/28 08:33:18;;;;;;;1999.90;999.90;;;;;;;;;;4983767;28;20038;-70
2023/11/28 08:35:47;;;;;;;1999.90;999.90;;;;;;;;;;4983380;28;20179;-70
2023/11/28 08:38:13;;;;;;;1999.90;999.90;;;;;;;;;;4982188;28;20744;-74
2023/11/28 08:40:39;;;;;;;1999.90;999.90;;;;;;;;;;4976358;28;20034;-70
2023/11/28 08:43:05;;;;;;;1999.90;999.90;;;;;;;;;;4969740;28;20035;-70
2023/11/28 08:45:31;;;;;;;1999.90;999.90;;;;;;;;;;4983233;28;20026;-69
2023/11/28 08:47:57;;;;;;;1999.90;999.90;;;;;;;;;;4983600;28;20101;-71
2023/11/28 08:50:23;;;;;;;1999.90;999.90;;;;;;;;;;4982833;28;20035;-69
2023/11/28 08:52:49;;;;;;;1999.90;999.90;;;;;;;;;;4978426;28;20064;-70
2023/11/28 08:55:15;;;;;;;1999.90;999.90;;;;;;;;;;4978763;28;20038;-71
2023/11/28 08:57:42;;;;;;;1999.90;999.90;;;;;;;;;;4980282;28;20406;-69
2023/11/28 09:00:08;;;;;;;1999.90;999.90;;;;;;;;;;4983824;28;20027;-69
2023/11/28 09:02:34;;;;;;;1999.90;999.90;;;;;;;;;;4981618;28;20482;-69
2023/11/28 09:05:00;;;;;;;1999.90;999.90;;;;;;;;;;4982784;28;20101;-69
2023/11/28 09:07:26;;;;;;;1999.90;999.90;;;;;;;;;;4981056;28;20050;-70
2023/11/28 09:09:53;;;;;;;1999.90;999.90;;;;;;;;;;4983160;28;20108;-67
2023/11/28 09:12:19;;;;;;;1999.90;999.90;;;;;;;;;;4962056;28;20030;-67
2023/11/28 09:14:47;;;;;;;1999.90;999.90;;;;;;;;;;4981703;28;20568;-70
2023/11/28 09:17:14;;;;;;;1999.90;999.90;;;;;;;;;;4963569;28;20026;-68
2023/11/28 09:19:41;;;;;;;1999.90;999.90;;;;;;;;;;4984093;28;20037;-69
2023/11/28 09:22:08;;;;;;;1999.90;999.90;;;;;;;;;;4966640;28;20026;-65
2023/11/28 09:24:34;;;;;;;1999.90;999.90;;;;;;;;;;4979605;28;20034;-67
2023/11/28 09:27:00;;;;;;;1999.90;999.90;;;;;;;;;;4978736;28;20533;-70
2023/11/28 09:29:26;;;;;;;1999.90;999.90;;;;;;;;;;4981338;28;20046;-69
2023/11/28 09:31:54;;;;;;;1999.90;999.90;;;;;;;;;;4980718;28;20538;-70
2023/11/28 09:34:21;;;;;;;1999.90;999.90;;;;;;;;;;4984092;28;20041;-64
2023/11/28 09:36:47;;;;;;;1999.90;999.90;;;;;;;;;;4981914;28;20110;-68
2023/11/28 09:39:13;;;;;;;1999.90;999.90;;;;;;;;;;4989116;28;20375;-68
2023/11/28 09:41:43;;;;;;;1999.90;999.90;;;;;;;;;;4989585;28;20148;-68
2023/11/28 09:44:12;;;;;;;1999.90;999.90;;;;;;;;;;4989104;28;20488;-68
2023/11/28 09:46:38;;;;;;;1999.90;999.90;;;;;;;;;;4983299;28;20026;-68
2023/11/28 09:49:05;;;;;;;1999.90;999.90;;;;;;;;;;4982436;28;20045;-68
2023/11/28 09:51:32;;;;;;;1999.90;999.90;;;;;;;;;;4981344;28;20077;-68
2023/11/28 09:53:58;;;;;;;1999.90;999.90;;;;;;;;;;4963675;28;20621;-68
2023/11/28 09:56:25;;;;;;;1999.90;999.90;;;;;;;;;;4982795;28;20037;-67
2023/11/28 09:59:01;;;;;;;1999.90;999.90;;;;;;;;;;4981520;28;20393;-65
2023/11/28 10:01:28;;;;;;;1999.90;999.90;;;;;;;;;;4978149;28;20014;-66
2023/11/28 10:03:54;;;;;;;1999.90;999.90;;;;;;;;;;4979282;28;20050;-68
2023/11/28 10:06:24;;;;;;;1999.90;999.90;;;;;;;;;;4981629;28;20442;-64
2023/11/28 10:08:50;;;;;;;1999.90;999.90;;;;;;;;;;4952851;29;20027;-66
2023/11/28 10:11:17;;;;;;;1999.90;999.90;;;;;;;;;;4973972;28;20058;-68
2023/11/28 10:13:45;;;;;;;1999.90;999.90;;;;;;;;;;4972134;28;20027;-64
2023/11/28 10:16:12;;;;;;;1999.90;999.90;;;;;;;;;;4972407;28;20038;-64
2023/11/28 10:18:43;;;;;;;1999.90;999.90;;;;;;;;;;4975425;28;20027;-66
2023/11/28 10:21:09;;;;;;;1999.90;999.90;;;;;;;;;;4971403;28;20031;-67
2023/11/28 10:23:35;;;;;;;1999.90;999.90;;;;;;;;;;4971748;28;20093;-66
2023/11/28 10:26:01;;;;;;;1999.90;999.90;;;;;;;;;;4972058;28;20029;-67
2023/11/28 10:28:27;;;;;;;1999.90;999.90;;;;;;;;;;4971654;28;20108;-67
2023/11/28 10:30:53;;;;;;;1999.90;999.90;;;;;;;;;;4971593;28;20174;-67
2023/11/28 10:33:19;;;;;;;1999.90;999.90;;;;;;;;;;4960832;28;20042;-66
2023/11/28 10:35:45;;;;;;;1999.90;999.90;;;;;;;;;;4935210;29;20399;-69
2023/11/28 10:38:15;;;;;;;1999.90;999.90;;;;;;;;;;4952310;29;20042;-69
2023/11/28 10:40:47;;;;;;;1999.90;999.90;;;;;;;;;;4952038;29;20134;-70
2023/11/28 10:43:13;;;;;;;1999.90;999.90;;;;;;;;;;4952439;29;20554;-71
2023/11/28 10:45:42;;;;;;;1999.90;999.90;;;;;;;;;;4952489;28;20117;-69
2023/11/28 10:48:08;;;;;;;1999.90;999.90;;;;;;;;;;4952683;29;20023;-70
2023/11/28 10:50:35;;;;;;;1999.90;999.90;;;;;;;;;;4951635;29;20061;-66
2023/11/28 10:53:04;;;;;;;1999.90;999.90;;;;;;;;;;4951945;29;20035;-67
2023/11/28 10:55:34;;;;;;;1999.90;999.90;;;;;;;;;;4952940;28;20034;-67
2023/11/28 10:58:02;;;;;;;1999.90;999.90;;;;;;;;;;4971765;28;20031;-67
2023/11/28 11:00:28;;;;;;;1999.90;999.90;;;;;;;;;;4971704;28;20049;-67
2023/11/28 11:02:58;;;;;;;1999.90;999.90;;;;;;;;;;4954099;28;20043;-67
2023/11/28 11:05:25;;;;;;;1999.90;999.90;;;;;;;;;;4970456;28;20114;-67
2023/11/28 11:07:52;;;;;;;1999.90;999.90;;;;;;;;;;4971520;28;20061;-67
2023/11/28 11:10:18;;;;;;;1999.90;999.90;;;;;;;;;;4971902;28;20109;-67
2023/11/28 11:12:46;;;;;;;1999.90;999.90;;;;;;;;;;4971528;28;20026;-71
2023/11/28 11:15:32;;;;;;;1999.90;999.90;;;;;;;;;;4971365;28;20031;-71
2023/11/28 11:18:01;;;;;;;1999.90;999.90;;;;;;;;;;4971692;28;20035;-69
2023/11/28 11:20:28;;;;;;;1999.90;999.90;;;;;;;;;;4971209;28;20034;-67
2023/11/28 11:23:00;;;;;;;1999.90;999.90;;;;;;;;;;4952749;28;20089;-68
2023/11/28 11:25:43;;;;;;;1999.90;999.90;;;;;;;;;;4970753;28;20348;-67
2023/11/28 11:28:09;;;;;;;1999.90;999.90;;;;;;;;;;4970082;28;20367;-67
2023/11/28 11:30:39;;;;;;;1999.90;999.90;;;;;;;;;;4969628;28;20034;-68
2023/11/28 11:33:08;;;;;;;1999.90;999.90;;;;;;;;;;4970173;28;20031;-67
2023/11/28 11:35:52;;;;;;;1999.90;999.90;;;;;;;;;;4970521;28;20058;-67
2023/11/28 11:38:28;;;;;;;1999.90;999.90;;;;;;;;;;4968293;28;20019;-66
2023/11/28 11:40:54;;;;;;;1999.90;999.90;;;;;;;;;;4969829;28;20540;-67
2023/11/28 11:43:21;;;;;;;1999.90;999.90;;;;;;;;;;4969284;28;20056;-67
2023/11/28 11:45:48;;;;;;;1999.90;999.90;;;;;;;;;;4970846;28;20155;-68
2023/11/28 11:48:24;;;;;;;1999.90;999.90;;;;;;;;;;4970968;28;20030;-67
2023/11/28 11:50:52;;;;;;;1999.90;999.90;;;;;;;;;;4970537;28;20030;-68
2023/11/28 11:53:18;;;;;;;1999.90;999.90;;;;;;;;;;4967397;28;20026;-67
2023/11/28 11:55:48;;;;;;;1999.90;999.90;;;;;;;;;;4970141;28;20086;-68
2023/11/28 11:58:14;;;;;;;1999.90;999.90;;;;;;;;;;4973025;28;20838;-67
2023/11/28 12:00:41;;;;;;;1999.90;999.90;;;;;;;;;;4974913;28;20466;-68
2023/11/28 12:03:10;;;;;;;1999.90;999.90;;;;;;;;;;4974680;28;20041;-68
2023/11/28 12:05:36;;;;;;;1999.90;999.90;;;;;;;;;;4974810;28;20470;-67
2023/11/28 12:08:03;;;;;;;1999.90;999.90;;;;;;;;;;4974759;28;20027;-69
2023/11/28 12:10:29;;;;;;;1999.90;999.90;;;;;;;;;;4956688;28;20085;-68
2023/11/28 12:12:56;;;;;;;1999.90;999.90;;;;;;;;;;4987585;28;20858;-70
2023/11/28 12:15:22;;;;;;;1999.90;999.90;;;;;;;;;;4976341;28;20030;-69
2023/11/28 12:17:50;;;;;;;1999.90;999.90;;;;;;;;;;4993976;28;20022;-69
2023/11/28 12:20:17;;;;;;;1999.90;999.90;;;;;;;;;;4993686;28;20491;-69
2023/11/28 12:22:43;;;;;;;1999.90;999.90;;;;;;;;;;4993663;28;20042;-69
2023/11/28 12:25:18;;;;;;;1999.90;999.90;;;;;;;;;;4976094;28;20466;-69
2023/11/28 12:27:46;;;;;;;1999.90;999.90;;;;;;;;;;4993755;28;20501;-70
2023/11/28 12:30:12;;;;;;;1999.90;999.90;;;;;;;;;;4992970;28;20080;-70
2023/11/28 12:32:39;;;;;;;1999.90;999.90;;;;;;;;;;4993444;28;20038;-70
2023/11/28 12:35:06;;;;;;;1999.90;999.90;;;;;;;;;;4985052;28;20144;-69
2023/11/28 12:37:32;;;;;;;1999.90;999.90;;;;;;;;;;4961409;28;20042;-69
2023/11/28 12:39:58;;;;;;;1999.90;999.90;;;;;;;;;;4964927;28;20482;-69
2023/11/28 12:42:27;;;;;;;1999.90;999.90;;;;;;;;;;4973599;28;20034;-68
2023/11/28 12:44:56;;;;;;;1999.90;999.90;;;;;;;;;;4973003;28;20065;-69
2023/11/28 12:47:23;;;;;;;1999.90;999.90;;;;;;;;;;4973345;28;20497;-67
2023/11/28 12:49:49;;;;;;;1999.90;999.90;;;;;;;;;;4973934;28;20167;-67
2023/11/28 12:52:16;;;;;;;1999.90;999.90;;;;;;;;;;4969528;28;20031;-68
2023/11/28 12:54:42;;;;;;;1999.90;999.90;;;;;;;;;;4972676;28;20023;-69
2023/11/28 12:57:12;;;;;;;1999.90;999.90;;;;;;;;;;4973086;28;20074;-70
2023/11/28 12:59:39;;;;;;;1999.90;999.90;;;;;;;;;;4959317;28;20027;-67
2023/11/28 13:02:06;;;;;;;1999.90;999.90;;;;;;;;;;4963792;28;20070;-67
2023/11/28 13:04:32;;;;;;;1999.90;999.90;;;;;;;;;;4972908;28;20025;-68
2023/11/28 13:06:58;;;;;;;1999.90;999.90;;;;;;;;;;4973172;28;20058;-70
2023/11/28 13:09:25;;;;;;;1999.90;999.90;;;;;;;;;;4968108;28;20070;-68
2023/11/28 13:11:51;;;;;;;1999.90;999.90;;;;;;;;;;4972844;28;20043;-69
2023/11/28 13:14:17;;;;;;;1999.90;999.90;;;;;;;;;;4973469;28;20023;-69
2023/11/28 13:16:44;;;;;;;1999.90;999.90;;;;;;;;;;4973534;28;20030;-68
2023/11/28 13:19:11;;;;;;;1999.90;999.90;;;;;;;;;;4975218;28;20520;-68
2023/11/28 13:21:38;;;;;;;1999.90;999.90;;;;;;;;;;4952922;28;20053;-66
2023/11/28 13:24:04;;;;;;;1999.90;999.90;;;;;;;;;;4972061;28;20037;-68
2023/11/28 13:26:30;;;;;;;1999.90;999.90;;;;;;;;;;4973399;28;20031;-70
2023/11/28 13:28:58;;;;;;;1999.90;999.90;;;;;;;;;;4973499;28;20019;-70
2023/11/28 13:31:24;;;;;;;1999.90;999.90;;;;;;;;;;4973022;28;20026;-68
2023/11/28 13:33:50;;;;;;;1999.90;999.90;;;;;;;;;;4972551;28;20035;-67
2023/11/28 13:36:20;;;;;;;1999.90;999.90;;;;;;;;;;4954876;28;20039;-69
2023/11/28 13:38:46;;;;;;;1999.90;999.90;;;;;;;;;;4972599;28;20027;-68
2023/11/28 13:41:13;;;;;;;1999.90;999.90;;;;;;;;;;4972875;28;20157;-69
2023/11/28 13:43:39;;;;;;;1999.90;999.90;;;;;;;;;;4972735;28;20110;-68
2023/11/28 13:46:08;;;;;;;1999.90;999.90;;;;;;;;;;4968716;28;20050;-69
2023/11/28 13:48:34;;;;;;;1999.90;999.90;;;;;;;;;;4972590;28;20415;-69
2023/11/28 13:51:01;;;;;;;1999.90;999.90;;;;;;;;;;4955780;28;20045;-69
2023/11/28 13:53:27;;;;;;;1999.90;999.90;;;;;;;;;;4973020;28;20015;-69
2023/11/28 13:55:56;;;;;;;1999.90;999.90;;;;;;;;;;4971653;28;20046;-69
2023/11/28 13:58:23;;;;;;;1999.90;999.90;;;;;;;;;;4971991;28;20050;-67
2023/11/28 14:00:49;;;;;;;1999.90;999.90;;;;;;;;;;4957276;28;20388;-69
2023/11/28 14:03:15;;;;;;;1999.90;999.90;;;;;;;;;;4949233;28;20030;-71
2023/11/28 14:05:42;;;;;;;1999.90;999.90;;;;;;;;;;4968599;28;20055;-70
2023/11/28 14:08:08;;;;;;;1999.90;999.90;;;;;;;;;;4972005;28;20034;-71
2023/11/28 14:10:34;;;;;;;1999.90;999.90;;;;;;;;;;4969955;28;20066;-70
2023/11/28 14:13:00;;;;;;;1999.90;999.90;;;;;;;;;;4972121;28;20019;-70
2023/11/28 14:15:27;;;;;;;1999.90;999.90;;;;;;;;;;4971472;28;20074;-71
2023/11/28 14:17:53;;;;;;;1999.90;999.90;;;;;;;;;;4968406;28;20070;-71
2023/11/28 14:20:19;;;;;;;1999.90;999.90;;;;;;;;;;4971643;28;20027;-66
2023/11/28 14:22:46;;;;;;;1999.90;999.90;;;;;;;;;;4971314;28;20027;-70
2023/11/28 14:25:13;;;;;;;1999.90;999.90;;;;;;;;;;4971823;28;20050;-66
2023/11/28 14:27:40;;;;;;;1999.90;999.90;;;;;;;;;;4971842;28;20102;-67
2023/11/28 14:30:06;;;;;;;1999.90;999.90;;;;;;;;;;4971475;28;20022;-66
2023/11/28 14:32:36;;;;;;;1999.90;999.90;;;;;;;;;;4960157;28;20039;-69
2023/11/28 14:35:02;;;;;;;1999.90;999.90;;;;;;;;;;4968691;28;20092;-69
2023/11/28 14:37:28;;;;;;;1999.90;999.90;;;;;;;;;;4957269;28;20064;-65
2023/11/28 14:39:55;;;;;;;1999.90;999.90;;;;;;;;;;4962424;28;20169;-67
2023/11/28 14:42:21;;;;;;;1999.90;999.90;;;;;;;;;;4961015;28;20491;-67
2023/11/28 14:44:47;;;;;;;1999.90;999.90;;;;;;;;;;4960657;28;20022;-68
2023/11/28 14:47:13;;;;;;;1999.90;999.90;;;;;;;;;;4962982;28;20486;-67
2023/11/28 14:49:39;;;;;;;1999.90;999.90;;;;;;;;;;4961460;28;20019;-69
2023/11/28 14:52:05;;;;;;;1999.90;999.90;;;;;;;;;;4955711;28;20058;-67
2023/11/28 14:54:31;;;;;;;1999.90;999.90;;;;;;;;;;4957314;28;20030;-69
2023/11/28 14:56:57;;;;;;;1999.90;999.90;;;;;;;;;;4957558;28;20027;-70
2023/11/28 14:59:23;;;;;;;1999.90;999.90;;;;;;;;;;4961542;28;20031;-71
2023/11/28 15:01:50;;;;;;;1999.90;999.90;;;;;;;;;;4965217;28;20026;-70
2023/11/28 15:04:16;;;;;;;1999.90;999.90;;;;;;;;;;4971490;28;20019;-72
2023/11/28 15:06:43;;;;;;;1999.90;999.90;;;;;;;;;;4965474;28;20503;-71
2023/11/28 15:09:14;;;;;;;1999.90;999.90;;;;;;;;;;4956517;28;20119;-69
2023/11/28 15:11:40;;;;;;;1999.90;999.90;;;;;;;;;;4966058;28;20042;-71
2023/11/28 15:14:07;;;;;;;1999.90;999.90;;;;;;;;;;4959576;28;20051;-71
2023/11/28 15:16:34;;;;;;;1999.90;999.90;;;;;;;;;;4957469;28;20383;-70
2023/11/28 15:19:00;;;;;;;1999.90;999.90;;;;;;;;;;4967496;28;20022;-70
2023/11/28 15:21:28;;;;;;;1999.90;999.90;;;;;;;;;;4970409;28;20537;-65
2023/11/28 15:23:54;;;;;;;1999.90;999.90;;;;;;;;;;4970822;28;20019;-69
2023/11/28 15:26:24;;;;;;;1999.90;999.90;;;;;;;;;;4970745;28;20015;-69
2023/11/28 15:28:50;;;;;;;1999.90;999.90;;;;;;;;;;4971288;28;20023;-70
2023/11/28 15:31:16;;;;;;;1999.90;999.90;;;;;;;;;;4971113;28;20070;-69
2023/11/28 15:33:42;;;;;;;1999.90;999.90;;;;;;;;;;4973837;28;20105;-71
2023/11/28 15:36:09;;;;;;;1999.90;999.90;;;;;;;;;;4974266;28;20033;-71
2023/11/28 15:38:36;;;;;;;1999.90;999.90;;;;;;;;;;4975363;28;20077;-70
2023/11/28 15:41:03;;;;;;;1999.90;999.90;;;;;;;;;;4957809;28;20114;-70
2023/11/28 15:43:29;;;;;;;1999.90;999.90;;;;;;;;;;4974723;28;20023;-70
2023/11/28 15:45:55;;;;;;;1999.90;999.90;;;;;;;;;;4974231;28;20096;-70
2023/11/28 15:48:22;;;;;;;1999.90;999.90;;;;;;;;;;4974556;28;20035;-70
2023/11/28 15:50:48;;;;;;;1999.90;999.90;;;;;;;;;;4974663;28;20497;-69
2023/11/28 15:53:14;;;;;;;1999.90;999.90;;;;;;;;;;4970371;28;20082;-70
2023/11/28 15:55:40;;;;;;;1999.90;999.90;;;;;;;;;;4956794;28;20050;-68
2023/11/28 15:58:06;;;;;;;1999.90;999.90;;;;;;;;;;4973619;28;20027;-69
2023/11/28 16:00:32;;;;;;;1999.90;999.90;;;;;;;;;;4973888;28;20095;-69
2023/11/28 16:02:58;;;;;;;1999.90;999.90;;;;;;;;;;4973818;28;20057;-67
2023/11/28 16:05:24;;;;;;;1999.90;999.90;;;;;;;;;;4973405;28;20026;-69
2023/11/28 16:07:52;;;;;;;1999.90;999.90;;;;;;;;;;4973857;28;20022;-66
2023/11/28 16:10:20;;;;;;;1999.90;999.90;;;;;;;;;;4970291;28;20023;-67
2023/11/28 16:12:48;;;;;;;1999.90;999.90;;;;;;;;;;4973944;28;20026;-71
2023/11/28 16:15:14;;;;;;;1999.90;999.90;;;;;;;;;;4973387;28;20039;-71
2023/11/28 16:17:40;;;;;;;1999.90;999.90;;;;;;;;;;4968973;28;20458;-65
2023/11/28 16:20:08;;;;;;;1999.90;999.90;;;;;;;;;;4971274;28;21506;-69
2023/11/28 16:22:35;;;;;;;1999.90;999.90;;;;;;;;;;4971136;28;20023;-65
2023/11/28 16:25:02;;;;;;;1999.90;999.90;;;;;;;;;;4976822;28;20034;-66
2023/11/28 16:27:28;;;;;;;1999.90;999.90;;;;;;;;;;4964268;28;20102;-66
2023/11/28 16:29:54;;;;;;;1999.90;999.90;;;;;;;;;;4964226;28;20114;-66
2023/11/28 16:32:20;;;;;;;1999.90;999.90;;;;;;;;;;4962935;28;20039;-66
2023/11/28 16:34:47;;;;;;;1999.90;999.90;;;;;;;;;;4963426;28;20130;-66
2023/11/28 16:37:14;;;;;;;1999.90;999.90;;;;;;;;;;4946974;28;20431;-67
2023/11/28 16:39:40;;;;;;;1999.90;999.90;;;;;;;;;;4963956;28;20383;-67
2023/11/28 16:42:09;;;;;;;1999.90;999.90;;;;;;;;;;4969046;28;20456;-67
2023/11/28 16:44:35;;;;;;;1999.90;999.90;;;;;;;;;;4975678;28;20076;-67
2023/11/28 16:47:01;;;;;;;1999.90;999.90;;;;;;;;;;4973771;28;20063;-66
2023/11/28 16:49:27;;;;;;;1999.90;999.90;;;;;;;;;;4956324;28;20031;-67
2023/11/28 16:51:53;;;;;;;1999.90;999.90;;;;;;;;;;4974471;28;20110;-64
2023/11/28 16:54:26;;;;;;;1999.90;999.90;;;;;;;;;;4954389;29;20027;-68
2023/11/28 16:56:52;;;;;;;1999.90;999.90;;;;;;;;;;4987698;28;20109;-65
2023/11/28 16:59:18;;;;;;;1999.90;999.90;;;;;;;;;;4973955;28;20047;-66
2023/11/28 17:01:45;;;;;;;1999.90;999.90;;;;;;;;;;4973385;28;20031;-65
2023/11/28 17:04:11;;;;;;;1999.90;999.90;;;;;;;;;;4958955;28;20120;-65
2023/11/28 17:06:38;;;;;;;1999.90;999.90;;;;;;;;;;4973193;28;20132;-63
2023/11/28 17:09:04;;;;;;;1999.90;999.90;;;;;;;;;;4964821;28;20039;-65
2023/11/28 17:11:32;;;;;;;1999.90;999.90;;;;;;;;;;4982045;28;20030;-74
2023/11/28 17:13:58;;;;;;;1999.90;999.90;;;;;;;;;;4979382;28;20366;-67
2023/11/28 17:16:24;;;;;;;1999.90;999.90;;;;;;;;;;4982553;28;20022;-66
2023/11/28 17:18:50;;;;;;;1999.90;999.90;;;;;;;;;;4983389;28;20497;-66
2023/11/28 17:21:17;;;;;;;1999.90;999.90;;;;;;;;;;4981464;28;20109;-67
2023/11/28 17:23:44;;;;;;;1999.90;999.90;;;;;;;;;;4982654;28;20035;-68
2023/11/28 17:26:11;;;;;;;1999.90;999.90;;;;;;;;;;4983277;28;20081;-67
2023/11/28 17:28:37;;;;;;;1999.90;999.90;;;;;;;;;;4981287;28;20019;-66
2023/11/28 17:31:04;;;;;;;1999.90;999.90;;;;;;;;;;4980717;28;20093;-67
2023/11/28 17:33:30;;;;;;;1999.90;999.90;;;;;;;;;;4980599;28;20575;-66
2023/11/28 17:35:58;;;;;;;1999.90;999.90;;;;;;;;;;4982705;28;20034;-71
2023/11/28 17:38:24;;;;;;;1999.90;999.90;;;;;;;;;;4981000;28;20356;-69
2023/11/28 17:40:51;;;;;;;1999.90;999.90;;;;;;;;;;4982466;28;20034;-68
2023/11/28 17:43:17;;;;;;;1999.90;999.90;;;;;;;;;;4982634;28;20019;-71
2023/11/28 17:45:43;;;;;;;1999.90;999.90;;;;;;;;;;4980678;28;20054;-66
2023/11/28 17:48:10;;;;;;;1999.90;999.90;;;;;;;;;;4977908;28;20058;-70
2023/11/28 17:50:37;;;;;;;1999.90;999.90;;;;;;;;;;4981829;28;20097;-70
2023/11/28 17:53:03;;;;;;;1999.90;999.90;;;;;;;;;;4980907;28;20058;-67
2023/11/28 17:55:29;;;;;;;1999.90;999.90;;;;;;;;;;4976976;28;20518;-67
2023/11/28 17:57:55;;;;;;;1999.90;999.90;;;;;;;;;;4977866;28;20062;-68
2023/11/28 18:00:21;;;;;;;1999.90;999.90;;;;;;;;;;4985552;28;20453;-66
2023/11/28 18:02:47;;;;;;;1999.90;999.90;;;;;;;;;;4977205;28;20026;-68
2023/11/28 18:05:16;;;;;;;1999.90;999.90;;;;;;;;;;4983603;28;20034;-69
2023/11/28 18:07:46;;;;;;;1999.90;999.90;;;;;;;;;;4991910;28;20030;-67
2023/11/28 18:10:12;;;;;;;1999.90;999.90;;;;;;;;;;4980995;28;20062;-67
2023/11/28 18:12:39;;;;;;;1999.90;999.90;;;;;;;;;;4975862;28;20042;-69
2023/11/28 18:15:06;;;;;;;1999.90;999.90;;;;;;;;;;4975578;28;20033;-70
2023/11/28 18:17:32;;;;;;;1999.90;999.90;;;;;;;;;;4981602;28;20462;-71
2023/11/28 18:19:58;;;;;;;1999.90;999.90;;;;;;;;;;4975499;28;20027;-73
2023/11/28 18:22:24;;;;;;;1999.90;999.90;;;;;;;;;;4971643;28;20502;-76
2023/11/28 18:24:50;;;;;;;1999.90;999.90;;;;;;;;;;4971377;28;20027;-76
2023/11/28 18:27:16;;;;;;;1999.90;999.90;;;;;;;;;;4970981;28;20033;-76
2023/11/28 18:29:42;;;;;;;1999.90;999.90;;;;;;;;;;4970899;28;20568;-71
2023/11/28 18:32:35;;;;;;;1999.90;999.90;;;;;;;;;;4982730;28;20038;-78
2023/11/28 18:35:07;;;;;;;1999.90;999.90;;;;;;;;;;4989963;28;20052;-76
2023/11/28 18:37:33;;;;;;;1999.90;999.90;;;;;;;;;;4969612;28;20406;-64
2023/11/28 18:39:59;;;;;;;1999.90;999.90;;;;;;;;;;4970794;28;20023;-67
2023/11/28 18:42:25;;;;;;;1999.90;999.90;;;;;;;;;;4970902;28;20031;-65
2023/11/28 18:44:52;;;;;;;1999.90;999.90;;;;;;;;;;4971163;28;20046;-69
2023/11/28 18:47:18;;;;;;;1999.90;999.90;;;;;;;;;;4976798;28;20060;-69
2023/11/28 18:49:45;;;;;;;1999.90;999.90;;;;;;;;;;4977666;28;20038;-64
2023/11/28 18:52:11;;;;;;;1999.90;999.90;;;;;;;;;;4971016;28;20027;-65
2023/11/28 18:54:37;;;;;;;1999.90;999.90;;;;;;;;;;4973668;28;20059;-64
2023/11/28 18:57:04;;;;;;;1999.90;999.90;;;;;;;;;;4973790;28;20418;-63
2023/11/28 18:59:30;;;;;;;1999.90;999.90;;;;;;;;;;4970399;28;20432;-66
2023/11/28 19:01:56;;;;;;;1999.90;999.90;;;;;;;;;;4976837;28;20488;-75
2023/11/28 19:04:22;;;;;;;1999.90;999.90;;;;;;;;;;4989829;28;20113;-69
2023/11/28 19:06:48;;;;;;;1999.90;999.90;;;;;;;;;;4977061;28;20031;-67
2023/11/28 19:09:15;;;;;;;1999.90;999.90;;;;;;;;;;4988655;28;20031;-72
2023/11/28 19:11:41;;;;;;;1999.90;999.90;;;;;;;;;;4991246;28;20482;-71
2023/11/28 19:14:08;;;;;;;1999.90;999.90;;;;;;;;;;4982466;28;20027;-69